Time;durP1;ratioP1;P1;durP2;ratioP2;P2;SDS_P1;SDS_P2;PMS_P1;PMS_P2;Temp;Humidity;BMP_temperature;BMP_pressure;BME280_temperature;BME280_humidity;BME280_pressure;Samples;Min_cycle;Max_cycle;Signal;HPM_P1;HPM_P2
2021/11/30 00:02:02;;;;;;;2.25;1.30;;;;;;;18.01;50.37;101259.09;5014991;28;20079;-74
2021/11/30 00:04:30;;;;;;;1.73;1.30;;;;;;;17.66;51.45;101267.09;5014980;28;20061;-74
2021/11/30 00:06:58;;;;;;;4.38;1.83;;;;;;;17.95;51.01;101266.00;5014897;28;20477;-75
2021/11/30 00:12:06;;;;;;;2.15;1.40;;;;;;;18.10;50.06;101256.97;5014844;28;20057;-74
2021/11/30 00:14:32;;;;;;;3.03;1.40;;;;;;;18.12;50.61;101262.16;5014838;28;20030;-75
2021/11/30 00:16:58;;;;;;;1.52;1.13;;;;;;;18.24;50.04;101257.38;5014664;28;20036;-75
2021/11/30 00:19:25;;;;;;;1.92;1.17;;;;;;;18.48;49.26;101262.00;5014698;28;20500;-75
2021/11/30 00:21:51;;;;;;;2.20;1.40;;;;;;;18.13;50.36;101256.25;5014623;28;20063;-74
2021/11/30 00:24:16;;;;;;;2.70;1.35;;;;;;;18.37;49.75;101249.03;4997077;28;20201;-73
2021/11/30 00:26:42;;;;;;;2.42;1.58;;;;;;;17.97;50.69;101260.94;5014298;28;20125;-74
2021/11/30 00:29:07;;;;;;;1.98;1.35;;;;;;;17.61;52.17;101251.56;5014616;28;20361;-74
2021/11/30 00:31:33;;;;;;;2.40;1.30;;;;;;;18.01;51.11;101254.38;5014439;28;20444;-74
2021/11/30 00:33:59;;;;;;;1.85;1.23;;;;;;;18.25;49.94;101259.00;4996863;28;20022;-74
2021/11/30 00:36:24;;;;;;;2.97;1.60;;;;;;;18.21;50.51;101258.09;5014360;28;20030;-75
2021/11/30 00:38:50;;;;;;;3.88;1.90;;;;;;;18.06;50.76;101256.09;5013923;28;20038;-75
2021/11/30 00:41:16;;;;;;;3.40;1.33;;;;;;;18.30;50.02;101255.97;5014226;28;20091;-73
2021/11/30 00:43:42;;;;;;;2.60;1.50;;;;;;;18.45;49.60;101272.97;4996637;28;20033;-73
2021/11/30 00:48:40;;;;;;;2.05;1.35;;;;;;;18.30;50.19;101271.78;5014099;28;20366;-73
2021/11/30 00:51:10;;;;;;;2.50;1.70;;;;;;;18.49;49.49;101271.09;5014042;28;20103;-73
2021/11/30 00:53:37;;;;;;;2.45;1.50;;;;;;;18.60;49.24;101257.56;5014116;28;20033;-73
2021/11/30 00:56:04;;;;;;;2.80;1.83;;;;;;;18.01;51.21;101259.91;5014010;28;20030;-73
2021/11/30 00:58:29;;;;;;;2.67;1.73;;;;;;;18.15;50.83;101253.97;5014059;28;20468;-74
2021/11/30 01:00:55;;;;;;;4.55;2.05;;;;;;;18.44;49.98;101261.09;4996306;28;20164;-73
2021/11/30 01:03:20;;;;;;;3.15;1.45;;;;;;;18.14;50.81;101257.09;4996455;28;20034;-72
2021/11/30 01:05:46;;;;;;;2.42;2.08;;;;;;;18.06;51.09;101258.03;5013840;28;20033;-74
2021/11/30 01:08:12;;;;;;;2.78;1.50;;;;;;;18.18;50.83;101258.78;4995968;28;20369;-74
2021/11/30 01:10:37;;;;;;;3.22;1.63;;;;;;;17.92;51.84;101261.19;5013189;28;20068;-74
2021/11/30 01:13:04;;;;;;;3.10;1.77;;;;;;;18.62;49.55;101255.25;5013728;28;20069;-74
2021/11/30 01:15:31;;;;;;;3.72;2.83;;;;;;;18.30;50.45;101258.75;5013547;28;20030;-74
2021/11/30 01:17:57;;;;;;;1.75;1.60;;;;;;;18.51;49.94;101254.94;4995959;28;20049;-73
2021/11/30 01:20:24;;;;;;;4.22;2.22;;;;;;;18.08;51.14;101258.50;5013523;28;20370;-74
2021/11/30 01:22:52;;;;;;;2.17;1.70;;;;;;;18.31;50.30;101256.78;5013590;28;20041;-74
2021/11/30 01:25:17;;;;;;;2.22;1.77;;;;;;;18.66;49.44;101258.91;4995784;28;20405;-74
2021/11/30 01:27:43;;;;;;;4.10;1.90;;;;;;;18.39;50.19;101252.25;5013249;28;20048;-74
2021/11/30 01:30:13;;;;;;;1.98;1.58;;;;;;;18.04;51.44;101261.13;5013342;28;20044;-74
2021/11/30 01:32:38;;;;;;;1.80;1.58;;;;;;;18.54;49.81;101259.78;5013401;28;20096;-74
2021/11/30 01:35:04;;;;;;;2.38;1.67;;;;;;;18.40;50.22;101259.38;5013275;28;20465;-74
2021/11/30 01:37:32;;;;;;;2.47;1.77;;;;;;;18.26;50.68;101257.03;5013263;28;20026;-73
2021/11/30 01:39:57;;;;;;;2.90;2.00;;;;;;;18.28;50.67;101249.16;5013493;28;20034;-73
2021/11/30 01:42:23;;;;;;;2.47;1.60;;;;;;;18.35;50.42;101252.13;5013216;28;20366;-74
2021/11/30 01:44:55;;;;;;;2.53;2.00;;;;;;;18.21;51.00;101238.75;5013428;28;20439;-74
2021/11/30 01:49:51;;;;;;;4.90;2.15;;;;;;;18.84;49.13;101247.16;5013016;28;20095;-74
2021/11/30 01:52:17;;;;;;;2.53;1.65;;;;;;;18.57;49.75;101246.03;5013094;28;20034;-73
2021/11/30 01:54:44;;;;;;;2.85;1.70;;;;;;;18.82;49.13;101238.41;5012716;28;20026;-74
2021/11/30 01:57:13;;;;;;;3.17;1.60;;;;;;;18.04;51.52;101239.03;5012582;28;20022;-74
2021/11/30 01:59:40;;;;;;;2.42;1.63;;;;;;;18.46;50.47;101241.38;5012957;28;20026;-74
2021/11/30 02:02:06;;;;;;;2.95;1.95;;;;;;;18.47;50.46;101232.72;5012967;28;20029;-74
2021/11/30 02:04:32;;;;;;;3.13;2.05;;;;;;;18.56;50.07;101219.50;4995248;28;20489;-75
2021/11/30 02:06:57;;;;;;;3.17;1.98;;;;;;;18.71;49.66;101226.25;5012832;28;20093;-74
2021/11/30 02:09:23;;;;;;;3.05;1.45;;;;;;;18.30;50.77;101236.63;5012707;28;20034;-74
2021/11/30 02:11:51;;;;;;;2.58;1.65;;;;;;;18.54;50.15;101226.56;5012727;28;20021;-74
2021/11/30 02:14:17;;;;;;;1.63;1.50;;;;;;;18.99;48.82;101226.19;4995112;28;20104;-73
2021/11/30 02:16:44;;;;;;;3.15;2.20;;;;;;;18.52;50.14;101217.81;5012798;28;20100;-75
2021/11/30 02:19:10;;;;;;;2.47;1.92;;;;;;;18.15;51.48;101220.78;4995493;28;20469;-74
2021/11/30 02:21:39;;;;;;;2.13;1.58;;;;;;;18.35;51.00;101212.59;5012674;28;20144;-74
2021/11/30 02:24:05;;;;;;;2.00;1.23;;;;;;;18.29;51.16;101214.84;5012712;28;20024;-73
2021/11/30 02:26:34;;;;;;;2.92;1.60;;;;;;;17.88;52.06;101214.06;5012365;28;20116;-74
2021/11/30 02:29:02;;;;;;;2.60;1.40;;;;;;;18.37;50.73;101213.06;5012581;28;20468;-74
2021/11/30 02:31:35;;;;;;;2.47;1.52;;;;;;;17.90;52.37;101195.19;4994948;28;20118;-74
2021/11/30 02:34:04;;;;;;;3.13;1.92;;;;;;;18.08;51.79;101209.53;5012575;28;20022;-74
2021/11/30 02:36:49;;;;;;;2.17;1.52;;;;;;;18.10;51.91;101214.69;5012770;28;20026;-74
2021/11/30 02:39:18;;;;;;;2.15;1.52;;;;;;;18.39;50.91;101208.78;5012573;28;20022;-73
2021/11/30 02:44:21;;;;;;;1.83;1.27;;;;;;;18.50;50.54;101214.59;5032645;22;20053;-74
2021/11/30 02:46:53;;;;;;;1.67;1.20;;;;;;;18.16;51.62;101211.31;5032244;28;20171;-75
2021/11/30 02:49:22;;;;;;;2.33;1.10;;;;;;;18.51;50.62;101199.59;5032141;28;20033;-75
2021/11/30 02:51:52;;;;;;;2.17;1.30;;;;;;;18.18;51.69;101203.47;5014540;28;20029;-74
2021/11/30 02:54:21;;;;;;;2.10;1.35;;;;;;;18.11;51.47;101200.50;5014382;28;20391;-74
2021/11/30 02:56:55;;;;;;;1.80;1.40;;;;;;;18.10;51.84;101187.84;5031761;28;20135;-74
2021/11/30 02:59:26;;;;;;;2.92;1.60;;;;;;;17.84;52.61;101193.03;5014537;28;20376;-73
2021/11/30 03:01:53;;;;;;;2.03;1.38;;;;;;;17.62;53.47;101186.84;5014417;28;20065;-74
2021/11/30 03:04:18;;;;;;;3.92;1.98;;;;;;;18.13;51.84;101181.59;5032036;28;20064;-74
2021/11/30 03:06:44;;;;;;;2.00;1.17;;;;;;;18.19;51.68;101179.38;5032041;28;20455;-73
2021/11/30 03:09:10;;;;;;;1.33;1.20;;;;;;;17.88;52.82;101182.88;5016024;28;20683;-74
2021/11/30 03:11:37;;;;;;;3.70;1.60;;;;;;;18.10;52.29;101185.06;5035789;28;20036;-74
2021/11/30 03:14:03;;;;;;;2.15;1.60;;;;;;;17.93;52.40;101182.63;5035443;28;20033;-74
2021/11/30 03:16:31;;;;;;;1.77;1.40;;;;;;;17.96;52.36;101184.69;5017884;28;20506;-74
2021/11/30 03:18:56;;;;;;;1.95;1.20;;;;;;;17.60;53.30;101167.03;5017875;28;20092;-74
2021/11/30 03:21:22;;;;;;;2.13;1.58;;;;;;;18.11;52.15;101169.28;5035670;28;20029;-75
2021/11/30 03:23:48;;;;;;;1.63;1.40;;;;;;;18.19;51.77;101155.28;5035572;28;20053;-74
2021/11/30 03:26:14;;;;;;;3.03;1.48;;;;;;;17.82;52.97;101160.19;5035495;28;20025;-75
2021/11/30 03:28:42;;;;;;;2.85;1.55;;;;;;;18.24;51.51;101163.34;5017716;28;20394;-74
2021/11/30 03:31:09;;;;;;;1.40;1.13;;;;;;;18.19;51.72;101147.00;5035443;28;20029;-74
2021/11/30 03:36:19;;;;;;;1.40;1.10;;;;;;;18.04;52.70;101158.84;5035430;28;20053;-74
2021/11/30 03:38:46;;;;;;;2.08;0.82;;;;;;;18.22;51.92;101149.06;5035591;28;20033;-74
2021/11/30 03:41:12;;;;;;;1.35;0.88;;;;;;;17.97;52.72;101156.66;5035317;28;20021;-74
2021/11/30 03:43:38;;;;;;;1.55;0.98;;;;;;;18.08;52.31;101154.22;5035001;28;20446;-74
2021/11/30 03:46:05;;;;;;;2.28;1.20;;;;;;;18.22;51.92;101173.97;5035145;28;20032;-73
2021/11/30 03:48:31;;;;;;;2.92;1.05;;;;;;;18.36;51.16;101164.41;5035138;28;20021;-74
2021/11/30 03:50:57;;;;;;;2.22;1.23;;;;;;;18.53;50.71;101175.16;5035021;28;20036;-74
2021/11/30 03:53:22;;;;;;;4.25;0.98;;;;;;;18.25;51.84;101181.53;5035020;28;20116;-74
2021/11/30 03:55:48;;;;;;;5.22;2.47;;;;;;;18.16;51.79;101189.19;5034958;28;20086;-75
2021/11/30 03:58:14;;;;;;;4.05;1.35;;;;;;;18.36;51.62;101175.47;5034864;28;20029;-74
2021/11/30 04:00:42;;;;;;;6.15;1.85;;;;;;;18.10;52.24;101181.50;5017123;28;20029;-73
2021/11/30 04:03:09;;;;;;;8.75;2.05;;;;;;;18.49;51.30;101188.88;5034751;28;20036;-74
2021/11/30 04:05:35;;;;;;;7.15;2.00;;;;;;;18.65;50.78;101172.28;5035048;28;20039;-75
2021/11/30 04:08:00;;;;;;;4.70;2.50;;;;;;;18.45;51.41;101165.06;5034671;28;20489;-73
2021/11/30 04:10:26;;;;;;;7.65;1.92;;;;;;;18.71;50.60;101165.34;5034599;28;20069;-75
2021/11/30 04:12:52;;;;;;;4.35;1.33;;;;;;;18.53;51.26;101159.34;5034605;28;20049;-75
2021/11/30 04:15:18;;;;;;;2.80;1.30;;;;;;;17.84;53.55;101148.81;5034599;28;20037;-74
2021/11/30 04:17:44;;;;;;;4.40;1.88;;;;;;;18.28;51.95;101155.94;5034525;28;20030;-74
2021/11/30 04:20:11;;;;;;;3.60;1.50;;;;;;;18.44;51.46;101155.13;5016186;28;20408;-74
2021/11/30 04:22:38;;;;;;;2.05;1.00;;;;;;;18.15;52.49;101164.66;5034407;28;20036;-75
2021/11/30 04:25:05;;;;;;;2.38;1.00;;;;;;;18.02;52.71;101156.44;5034513;28;20452;-75
2021/11/30 04:27:31;;;;;;;1.88;0.98;;;;;;;18.43;51.53;101161.84;5034369;28;20087;-74
2021/11/30 04:29:58;;;;;;;1.08;0.85;;;;;;;18.34;51.81;101167.53;5050385;28;20032;-74
2021/11/30 04:32:24;;;;;;;1.75;0.95;;;;;;;18.36;51.58;101154.16;5048087;28;20090;-73
2021/11/30 04:34:49;;;;;;;5.15;1.10;;;;;;;18.47;51.29;101168.28;5048952;28;20109;-74
2021/11/30 04:37:15;;;;;;;2.08;0.90;;;;;;;18.17;52.38;101167.88;5034317;28;20036;-74
2021/11/30 04:39:41;;;;;;;2.20;0.95;;;;;;;18.53;51.47;101177.94;5034154;28;20025;-73
2021/11/30 04:42:07;;;;;;;3.85;1.30;;;;;;;18.20;52.26;101172.69;5033877;28;20033;-73
2021/11/30 04:44:35;;;;;;;2.35;1.23;;;;;;;18.32;51.83;101169.06;5034186;28;20364;-74
2021/11/30 04:47:07;;;;;;;1.05;0.73;;;;;;;18.69;50.75;101161.34;5036672;28;20032;-74
2021/11/30 04:52:06;;;;;;;3.78;1.58;;;;;;;18.03;53.14;101157.22;5034142;28;20029;-74
2021/11/30 04:54:32;;;;;;;4.65;1.08;;;;;;;18.05;52.87;101176.22;5034053;28;20028;-73
2021/11/30 04:56:57;;;;;;;4.20;1.83;;;;;;;18.15;52.07;101159.94;5033720;28;20361;-74
2021/11/30 04:59:23;;;;;;;1.77;1.25;;;;;;;18.30;51.95;101173.00;5033615;28;20032;-73
2021/11/30 05:01:49;;;;;;;3.90;1.30;;;;;;;18.27;52.47;101173.69;5033603;28;20021;-73
2021/11/30 05:04:16;;;;;;;3.92;1.55;;;;;;;18.43;51.92;101162.63;5033558;28;20039;-74
2021/11/30 05:06:43;;;;;;;3.08;1.48;;;;;;;18.50;51.62;101164.78;5015759;28;20059;-75
2021/11/30 05:09:09;;;;;;;7.65;1.73;;;;;;;18.72;50.82;101157.84;5033457;28;20030;-74
2021/11/30 05:11:37;;;;;;;7.70;2.00;;;;;;;18.57;51.36;101165.78;5033347;28;20041;-74
2021/11/30 05:14:03;;;;;;;3.55;1.50;;;;;;;18.57;51.37;101159.44;5033335;28;20148;-74
2021/11/30 05:16:28;;;;;;;5.95;1.83;;;;;;;18.53;51.81;101159.34;5041233;28;20120;-76
2021/11/30 05:18:54;;;;;;;7.40;1.83;;;;;;;18.39;52.33;101169.25;5044058;28;20106;-75
2021/11/30 05:21:19;;;;;;;3.97;1.20;;;;;;;18.45;51.88;101165.06;5025631;28;20039;-75
2021/11/30 05:23:45;;;;;;;1.52;0.88;;;;;;;18.52;51.83;101152.22;5042837;28;20030;-74
2021/11/30 05:26:11;;;;;;;3.88;1.38;;;;;;;18.52;51.74;101162.50;5041954;28;20021;-74
2021/11/30 05:28:40;;;;;;;5.90;1.20;;;;;;;18.38;52.48;101162.13;5018148;28;20018;-75
2021/11/30 05:31:08;;;;;;;2.90;1.73;;;;;;;18.18;53.18;101166.72;5044590;28;20104;-74
2021/11/30 05:33:34;;;;;;;5.20;1.50;;;;;;;18.32;52.57;101144.16;5037811;28;20081;-74
2021/11/30 05:36:01;;;;;;;4.50;1.55;;;;;;;18.18;53.23;101170.28;5041741;28;20021;-74
2021/11/30 05:38:28;;;;;;;3.88;1.70;;;;;;;18.21;53.15;101160.47;5040759;28;20032;-74
2021/11/30 05:40:54;;;;;;;2.47;1.40;;;;;;;18.50;52.17;101154.53;5037762;28;20017;-74
2021/11/30 05:43:20;;;;;;;1.85;1.00;;;;;;;18.62;51.83;101141.78;5041388;28;20049;-74
2021/11/30 05:45:46;;;;;;;2.80;0.98;;;;;;;18.33;52.75;101149.34;5040666;28;20033;-74
2021/11/30 05:48:13;;;;;;;5.75;1.92;;;;;;;18.05;53.40;101138.31;5040359;28;20025;-75
2021/11/30 05:50:38;;;;;;;1.10;0.80;;;;;;;18.37;52.57;101144.72;5007466;28;20047;-75
2021/11/30 05:53:05;;;;;;;1.02;0.85;;;;;;;18.16;53.52;101144.16;5040563;28;20033;-74
2021/11/30 05:55:31;;;;;;;1.70;0.75;;;;;;;18.28;53.10;101135.75;5041509;28;20112;-74
2021/11/30 05:57:58;;;;;;;1.52;0.85;;;;;;;18.05;53.64;101146.63;5042079;28;20025;-75
2021/11/30 06:00:24;;;;;;;1.30;0.80;;;;;;;17.71;55.08;101129.50;5039737;28;20029;-74
2021/11/30 06:05:26;;;;;;;1.52;1.08;;;;;;;17.71;54.69;101135.03;5038101;28;20025;-74
2021/11/30 06:07:52;;;;;;;1.90;1.13;;;;;;;18.01;53.95;101123.59;5023313;28;20025;-74
2021/11/30 06:10:18;;;;;;;2.25;1.08;;;;;;;18.25;52.94;101120.69;5042099;28;20026;-74
2021/11/30 06:12:44;;;;;;;2.55;1.50;;;;;;;18.20;53.06;101111.84;5036888;28;20032;-74
2021/11/30 06:15:11;;;;;;;1.30;0.98;;;;;;;17.66;54.85;101110.38;5040956;28;20018;-74
2021/11/30 06:17:36;;;;;;;1.20;0.95;;;;;;;17.95;54.35;101120.28;5022421;28;20076;-75
2021/11/30 06:20:03;;;;;;;2.03;1.17;;;;;;;18.10;53.66;101124.25;5042091;28;20055;-74
2021/11/30 06:22:28;;;;;;;2.38;1.17;;;;;;;17.91;54.38;101121.34;5040665;28;20048;-74
2021/11/30 06:24:54;;;;;;;1.25;0.82;;;;;;;18.01;53.88;101118.88;5040681;28;20396;-74
2021/11/30 06:27:20;;;;;;;2.70;1.00;;;;;;;17.79;54.63;101130.50;5042013;28;20013;-74
2021/11/30 06:29:45;;;;;;;1.02;0.90;;;;;;;18.20;53.26;101118.19;5040190;28;20056;-74
2021/11/30 06:32:11;;;;;;;1.20;0.85;;;;;;;18.37;52.82;101114.28;5041017;28;20494;-73
2021/11/30 06:34:37;;;;;;;2.13;1.00;;;;;;;18.14;53.39;101108.56;5047901;28;20421;-74
2021/11/30 06:37:07;;;;;;;1.50;1.10;;;;;;;18.33;52.80;101104.28;5052181;28;20021;-74
2021/11/30 06:39:33;;;;;;;;;;;;;;;18.23;52.78;101116.69;5052728;28;20048;-73
2021/11/30 06:41:59;;;;;;;0.95;0.80;;;;;;;18.00;53.84;101108.97;5052240;28;20378;-74
2021/11/30 06:44:24;;;;;;;0.70;0.70;;;;;;;17.96;54.03;101121.09;5054420;28;20041;-74
2021/11/30 06:46:50;;;;;;;2.20;0.73;;;;;;;18.38;52.60;101126.16;5056123;28;20056;-74
2021/11/30 06:49:15;;;;;;;2.33;0.95;;;;;;;18.33;52.77;101116.16;5038151;28;20044;-74
2021/11/30 06:51:41;;;;;;;1.10;0.70;;;;;;;18.13;53.44;101125.47;5056357;28;20055;-74
2021/11/30 06:54:07;;;;;;;1.45;0.85;;;;;;;18.42;52.20;101119.53;5056112;28;20517;-74
2021/11/30 06:56:32;;;;;;;0.82;0.75;;;;;;;18.17;52.95;101127.19;5056009;28;20096;-74
2021/11/30 06:58:58;;;;;;;1.70;0.90;;;;;;;18.29;52.93;101132.66;5056330;28;20108;-74
2021/11/30 07:01:24;;;;;;;2.15;0.90;;;;;;;18.37;52.56;101132.84;5021607;28;20032;-74
2021/11/30 07:03:49;;;;;;;4.30;1.40;;;;;;;18.06;53.11;101148.25;5055870;28;20108;-74
2021/11/30 07:06:23;;;;;;;1.00;0.90;;;;;;;17.98;53.51;101151.94;5055900;28;20522;-74
2021/11/30 07:08:53;;;;;;;1.50;0.95;;;;;;;18.09;53.56;101147.53;5055819;28;20021;-74
2021/11/30 07:11:34;;;;;;;3.08;0.98;;;;;;;18.37;52.35;101143.91;5055791;28;20029;-75
2021/11/30 07:14:00;;;;;;;1.23;0.80;;;;;;;18.34;52.62;101144.59;5055765;28;20021;-74
2021/11/30 07:16:25;;;;;;;1.42;0.90;;;;;;;18.32;52.21;101147.75;5055626;28;20033;-75
2021/11/30 07:18:51;;;;;;;3.33;0.93;;;;;;;18.35;52.64;101135.16;5055597;28;20059;-73
2021/11/30 07:21:16;;;;;;;1.25;0.88;;;;;;;17.95;53.62;101138.84;5055793;28;20166;-74
2021/11/30 07:23:42;;;;;;;1.27;0.80;;;;;;;18.53;51.78;101141.94;5055528;28;20486;-74
2021/11/30 07:26:08;;;;;;;3.00;1.08;;;;;;;18.03;53.40;101144.22;5037534;28;20029;-74
2021/11/30 07:28:34;;;;;;;0.98;0.80;;;;;;;17.93;53.54;101133.66;5037669;28;20032;-74
2021/11/30 07:31:03;;;;;;;1.35;0.80;;;;;;;18.25;52.67;101129.00;5037597;28;20090;-74
2021/11/30 07:33:32;;;;;;;0.82;0.68;;;;;;;18.34;52.09;101137.09;5055381;28;20053;-74
2021/11/30 07:35:57;;;;;;;6.70;0.98;;;;;;;18.28;52.43;101142.09;5055263;28;20054;-74
2021/11/30 07:38:23;;;;;;;1.20;0.90;;;;;;;18.47;51.84;101141.41;5055466;28;20344;-75
2021/11/30 07:40:49;;;;;;;1.08;0.80;;;;;;;18.52;51.61;101138.38;5055172;28;20429;-75
2021/11/30 07:43:14;;;;;;;2.90;0.70;;;;;;;18.64;51.23;101151.31;5020697;28;20115;-75
2021/11/30 07:45:42;;;;;;;1.05;0.70;;;;;;;18.26;52.24;101147.19;5055224;28;20033;-74
2021/11/30 07:48:08;;;;;;;3.22;1.10;;;;;;;18.52;51.62;101145.88;5037084;28;20375;-74
2021/11/30 07:50:33;;;;;;;1.27;0.80;;;;;;;18.41;51.79;101136.50;5054943;28;20116;-73
2021/11/30 07:52:59;;;;;;;2.55;1.20;;;;;;;18.43;51.63;101137.72;5037019;28;20028;-73
2021/11/30 07:55:24;;;;;;;0.80;0.80;;;;;;;18.15;52.41;101137.81;5053818;28;20090;-74
2021/11/30 07:57:50;;;;;;;1.13;0.80;;;;;;;17.95;52.92;101139.63;5054769;28;20037;-74
2021/11/30 08:00:17;;;;;;;0.93;0.70;;;;;;;18.12;52.69;101135.75;5036887;28;20059;-73
2021/11/30 08:02:43;;;;;;;0.60;0.60;;;;;;;17.97;53.04;101134.56;5054890;28;20029;-73
2021/11/30 08:05:10;;;;;;;1.20;1.00;;;;;;;18.80;50.40;101127.22;5054787;28;20406;-74
2021/11/30 08:07:36;;;;;;;1.67;1.05;;;;;;;18.42;51.69;101124.25;5054752;28;20033;-74
2021/11/30 08:10:09;;;;;;;1.60;0.85;;;;;;;17.90;52.92;101126.06;5036689;28;20037;-74
2021/11/30 08:12:35;;;;;;;1.60;1.00;;;;;;;18.43;51.38;101120.34;5054713;28;20029;-74
2021/11/30 08:15:02;;;;;;;0.95;0.82;;;;;;;18.27;51.59;101106.50;5036778;28;20036;-75
2021/11/30 08:17:28;;;;;;;1.23;0.82;;;;;;;18.57;50.52;101084.72;5054574;28;20025;-75
2021/11/30 08:19:54;;;;;;;1.30;1.02;;;;;;;18.46;51.11;101100.28;5054026;28;20107;-76
2021/11/30 08:22:19;;;;;;;2.35;1.30;;;;;;;18.73;50.17;101112.41;5034818;28;20036;-74
2021/11/30 08:24:45;;;;;;;2.35;1.25;;;;;;;18.66;50.25;101118.56;5035181;28;20064;-74
2021/11/30 08:27:11;;;;;;;2.67;2.00;;;;;;;18.56;50.79;101130.16;5053948;28;20033;-74
2021/11/30 08:29:39;;;;;;;2.70;1.80;;;;;;;18.40;51.32;101130.16;5036266;28;20055;-74
2021/11/30 08:32:08;;;;;;;3.88;2.15;;;;;;;18.84;49.89;101117.03;5052330;28;20032;-75
2021/11/30 08:34:34;;;;;;;3.05;1.92;;;;;;;18.69;50.21;101117.88;5034634;28;20028;-75
2021/11/30 08:37:00;;;;;;;2.72;1.83;;;;;;;18.62;50.54;101120.44;5035643;28;20052;-74
2021/11/30 08:39:25;;;;;;;2.72;1.75;;;;;;;18.26;51.49;101122.28;5053400;28;20079;-74
2021/11/30 08:41:51;;;;;;;2.80;1.85;;;;;;;18.73;49.75;101129.00;5053392;28;20053;-74
2021/11/30 08:44:17;;;;;;;3.25;1.75;;;;;;;18.71;50.09;101115.53;5053209;28;20077;-74
2021/11/30 08:46:42;;;;;;;2.10;1.30;;;;;;;18.87;49.40;101101.66;5053719;28;20029;-74
2021/11/30 08:49:08;;;;;;;2.15;1.27;;;;;;;18.95;49.45;101108.16;5054048;28;20033;-74
2021/11/30 08:51:34;;;;;;;3.20;1.40;;;;;;;18.93;49.11;101122.38;5053995;28;20037;-75
2021/11/30 08:54:00;;;;;;;1.98;1.48;;;;;;;18.71;50.31;101125.81;5053982;28;20028;-75
2021/11/30 08:56:26;;;;;;;4.97;2.10;;;;;;;18.82;49.73;101113.84;5035824;28;20533;-75
2021/11/30 08:58:52;;;;;;;3.78;1.67;;;;;;;18.59;50.54;101107.31;5053744;28;20025;-75
2021/11/30 09:01:20;;;;;;;3.70;2.13;;;;;;;18.40;50.88;101096.16;5053743;28;20033;-74
2021/11/30 09:03:46;;;;;;;5.93;2.15;;;;;;;18.69;50.06;101106.00;5053757;28;20031;-75
2021/11/30 09:06:12;;;;;;;3.60;2.00;;;;;;;18.27;51.17;101093.47;5053460;28;20446;-75
2021/11/30 09:08:37;;;;;;;2.78;2.20;;;;;;;18.45;50.81;101095.91;5053684;28;20029;-75
2021/11/30 09:11:05;;;;;;;4.43;2.72;;;;;;;18.44;50.81;101089.56;5053702;28;20453;-74
2021/11/30 09:13:30;;;;;;;2.47;2.00;;;;;;;18.72;49.94;101089.47;5053526;28;20029;-74
2021/11/30 09:15:57;;;;;;;2.60;1.95;;;;;;;18.64;50.07;101090.41;5053466;28;20024;-74
2021/11/30 09:18:23;;;;;;;2.97;2.20;;;;;;;18.99;49.04;101089.69;5053409;28;20039;-74
2021/11/30 09:20:48;;;;;;;2.17;1.80;;;;;;;19.08;48.69;101076.44;5053267;28;20460;-74
2021/11/30 09:23:14;;;;;;;3.53;2.30;;;;;;;19.18;48.50;101091.66;5053412;28;20086;-74
2021/11/30 09:25:40;;;;;;;2.80;1.90;;;;;;;19.23;48.33;101077.53;5053290;28;20029;-73
2021/11/30 09:28:06;;;;;;;2.58;2.10;;;;;;;18.85;49.18;101071.56;5053350;28;20467;-74
2021/11/30 09:30:37;;;;;;;3.63;2.28;;;;;;;18.72;49.74;101081.16;5053106;28;20037;-74
2021/11/30 09:33:03;;;;;;;2.50;1.90;;;;;;;18.77;49.36;101078.13;5053164;28;20554;-74
2021/11/30 09:35:29;;;;;;;3.35;2.70;;;;;;;18.68;49.78;101076.72;5052803;28;20104;-74
2021/11/30 09:37:56;;;;;;;4.28;1.90;;;;;;;19.06;48.85;101076.00;5052418;28;20063;-75
2021/11/30 09:40:25;;;;;;;1.83;1.63;;;;;;;19.32;48.05;101078.13;5045917;28;20029;-74
2021/11/30 09:42:51;;;;;;;2.85;1.88;;;;;;;19.09;48.40;101075.25;5032965;28;20045;-74
2021/11/30 09:45:18;;;;;;;3.58;2.40;;;;;;;19.31;47.69;101080.09;5033014;28;20376;-74
2021/11/30 09:47:44;;;;;;;3.45;2.35;;;;;;;18.74;49.50;101078.84;5032884;28;20032;-73
2021/11/30 09:50:13;;;;;;;3.47;2.30;;;;;;;19.11;48.19;101084.00;5032742;28;20037;-74
2021/11/30 09:52:39;;;;;;;2.97;1.90;;;;;;;19.44;47.46;101077.19;5008104;28;20022;-75
2021/11/30 09:55:06;;;;;;;6.65;2.38;;;;;;;19.32;47.64;101086.44;5041663;28;20151;-75
2021/11/30 09:57:32;;;;;;;2.33;1.73;;;;;;;19.39;47.56;101094.91;5043278;28;20021;-75
2021/11/30 09:59:58;;;;;;;1.88;1.50;;;;;;;18.84;48.92;101091.31;4999285;28;20318;-74
2021/11/30 10:02:24;;;;;;;2.15;1.40;;;;;;;19.12;48.06;101091.16;5011200;28;20025;-74
2021/11/30 10:04:50;;;;;;;3.15;1.60;;;;;;;18.41;49.40;101095.00;5011992;28;20076;-74
2021/11/30 10:07:15;;;;;;;2.40;1.88;;;;;;;18.79;48.94;101089.63;5012357;28;20022;-74
2021/11/30 10:09:41;;;;;;;1.42;1.30;;;;;;;19.19;47.62;101096.84;5011114;28;20060;-75
2021/11/30 10:12:09;;;;;;;3.25;1.48;;;;;;;19.26;47.54;101085.91;5011066;28;20030;-75
2021/11/30 10:14:41;;;;;;;3.33;1.38;;;;;;;19.65;46.30;101089.53;5011108;28;20554;-75
2021/11/30 10:17:25;;;;;;;4.22;1.30;;;;;;;19.76;46.34;101075.88;5011041;28;20022;-74
2021/11/30 10:19:58;;;;;;;3.55;1.55;;;;;;;19.41;47.07;101087.81;5011670;28;20357;-74
2021/11/30 10:22:40;;;;;;;2.85;1.60;;;;;;;19.60;46.64;101091.78;5012411;28;20030;-75
2021/11/30 10:25:14;;;;;;;3.10;1.40;;;;;;;19.08;47.50;101080.00;5013307;28;20029;-74
2021/11/30 10:27:56;;;;;;;1.55;1.40;;;;;;;19.34;47.18;101070.25;5012771;28;20480;-74
2021/11/30 10:30:24;;;;;;;1.40;1.30;;;;;;;19.67;46.33;101069.75;5012689;28;20037;-73
2021/11/30 10:32:51;;;;;;;1.85;0.90;;;;;;;19.79;45.98;101074.31;4995213;28;20030;-74
2021/11/30 10:35:19;;;;;;;1.17;0.93;;;;;;;19.67;46.42;101073.34;5012667;28;20026;-74
2021/11/30 10:37:46;;;;;;;1.38;1.10;;;;;;;19.23;47.45;101064.47;5012613;28;20530;-75
2021/11/30 10:40:16;;;;;;;1.33;0.90;;;;;;;19.44;47.07;101061.38;5012682;28;20144;-74
2021/11/30 10:42:55;;;;;;;2.85;1.05;;;;;;;19.50;46.90;101056.34;5012380;28;20060;-74
2021/11/30 10:45:30;;;;;;;1.23;1.02;;;;;;;19.09;47.80;101055.88;5012607;28;20021;-74
2021/11/30 10:48:03;;;;;;;0.80;0.80;;;;;;;19.34;47.19;101053.63;4994895;28;20026;-75
2021/11/30 10:50:33;;;;;;;1.95;1.17;;;;;;;19.31;47.69;101046.84;5012518;28;20030;-74
2021/11/30 10:53:00;;;;;;;1.70;1.30;;;;;;;19.68;46.46;101038.91;4995024;28;20514;-74
2021/11/30 10:55:27;;;;;;;3.08;1.10;;;;;;;19.77;46.52;101021.22;5012486;28;20477;-75
2021/11/30 10:57:53;;;;;;;1.00;0.88;;;;;;;19.58;46.92;101028.41;5012569;28;20026;-74
2021/11/30 11:00:24;;;;;;;1.67;1.00;;;;;;;19.49;46.86;101008.38;5012388;28;20088;-75
2021/11/30 11:05:34;;;;;;;2.03;0.80;;;;;;;19.91;46.23;101004.84;5012458;28;20026;-73
2021/11/30 11:08:05;;;;;;;3.08;1.40;;;;;;;19.25;47.87;100998.44;5012431;28;20104;-74
2021/11/30 11:10:32;;;;;;;1.15;0.77;;;;;;;19.70;46.54;100994.16;5012260;28;20033;-74
2021/11/30 11:13:24;;;;;;;1.75;1.25;;;;;;;19.40;47.52;100982.88;5012518;28;20029;-74
2021/11/30 11:15:58;;;;;;;3.05;1.10;;;;;;;19.75;46.60;100968.91;5012160;28;20034;-75
2021/11/30 11:18:31;;;;;;;1.92;1.10;;;;;;;19.54;47.17;100962.97;4994653;28;20555;-75
2021/11/30 11:21:17;;;;;;;3.08;1.33;;;;;;;19.47;47.85;100951.75;5012283;28;20049;-75
2021/11/30 11:23:57;;;;;;;2.25;0.80;;;;;;;19.54;47.37;100949.09;5012255;28;20030;-75
2021/11/30 11:26:26;;;;;;;2.53;0.93;;;;;;;19.76;46.91;100934.47;5012273;28;20029;-75
2021/11/30 11:28:54;;;;;;;1.75;1.00;;;;;;;19.92;46.35;100926.00;5012082;28;20064;-75
2021/11/30 11:31:22;;;;;;;2.08;1.02;;;;;;;19.34;47.75;100937.25;5015560;28;20030;-74
2021/11/30 11:33:48;;;;;;;1.65;0.93;;;;;;;19.81;46.55;100936.94;5015624;28;20017;-75
2021/11/30 11:36:15;;;;;;;1.67;0.80;;;;;;;19.41;47.30;100931.84;5015965;28;20037;-75
2021/11/30 11:38:41;;;;;;;1.98;1.00;;;;;;;19.19;48.22;100924.31;5015636;28;20022;-75
2021/11/30 11:41:08;;;;;;;1.40;1.00;;;;;;;19.48;47.10;100909.81;5015538;28;20026;-75
2021/11/30 11:43:36;;;;;;;0.68;0.68;;;;;;;19.78;46.02;100915.50;5015422;28;20046;-74
2021/11/30 11:46:02;;;;;;;0.75;0.70;;;;;;;19.76;46.30;100905.94;5015534;28;20049;-75